createdAt,value
2022-11-13T00:00:19.120Z,1.30
2022-11-13T00:01:19.049Z,1.50
2022-11-13T00:02:19.000Z,1.60
2022-11-13T00:03:18.915Z,2.20
2022-11-13T00:04:18.845Z,1.20
2022-11-13T00:05:18.802Z,1.40
2022-11-13T00:06:18.716Z,1.80
2022-11-13T00:07:18.699Z,1.70
2022-11-13T00:08:18.573Z,2.10
2022-11-13T00:09:18.503Z,1.50
2022-11-13T00:10:18.434Z,1.60
2022-11-13T00:11:18.522Z,1.50
2022-11-13T00:12:18.380Z,1.40
2022-11-13T00:13:18.228Z,1.40
2022-11-13T00:14:18.161Z,2.00
2022-11-13T00:15:18.096Z,1.70
2022-11-13T00:16:18.024Z,1.50
2022-11-13T00:17:17.961Z,1.90
2022-11-13T00:18:17.887Z,1.50
2022-11-13T00:19:17.822Z,1.50
2022-11-13T00:20:17.750Z,1.90
2022-11-13T00:21:17.681Z,1.50
2022-11-13T00:22:17.611Z,1.80
2022-11-13T00:23:17.544Z,2.10
2022-11-13T00:24:17.485Z,1.60
2022-11-13T00:25:17.403Z,1.80
2022-11-13T00:26:17.344Z,1.30
2022-11-13T00:27:17.271Z,1.60
2022-11-13T00:28:17.286Z,1.30
2022-11-13T00:29:17.136Z,2.00
2022-11-13T00:30:19.441Z,1.70
2022-11-13T00:31:16.995Z,1.40
2022-11-13T00:32:16.927Z,1.50
2022-11-13T00:33:38.284Z,1.80
2022-11-13T00:34:45.884Z,1.70
2022-11-13T00:35:16.720Z,2.10
2022-11-13T00:36:16.653Z,2.50
2022-11-13T00:37:16.581Z,1.80
2022-11-13T00:38:16.517Z,1.60
2022-11-13T00:39:16.442Z,1.80
2022-11-13T00:40:16.378Z,1.60
2022-11-13T00:41:16.309Z,1.80
2022-11-13T00:42:16.242Z,2.00
2022-11-13T00:43:16.171Z,1.90
2022-11-13T00:44:16.190Z,1.30
2022-11-13T00:45:16.031Z,1.60
2022-11-13T00:46:15.968Z,1.50
2022-11-13T00:47:15.899Z,2.00
2022-11-13T00:48:15.832Z,1.90
2022-11-13T00:49:15.758Z,1.50
2022-11-13T00:50:15.690Z,2.30
2022-11-13T00:51:15.620Z,2.10
2022-11-13T00:52:15.555Z,2.10
2022-11-13T00:53:18.186Z,1.70
2022-11-13T00:54:15.423Z,2.50
2022-11-13T00:55:15.359Z,1.40
2022-11-13T00:56:15.281Z,1.90
2022-11-13T00:57:15.208Z,1.70
2022-11-13T00:58:15.141Z,1.50
2022-11-13T00:59:15.071Z,1.60
2022-11-13T01:00:15.090Z,1.60
2022-11-13T01:01:14.959Z,1.30
2022-11-13T01:02:14.869Z,1.70
2022-11-13T01:03:14.796Z,1.90
2022-11-13T01:04:14.733Z,1.50
2022-11-13T01:05:14.664Z,1.70
2022-11-13T01:06:14.599Z,2.10
2022-11-13T01:07:14.561Z,1.40
2022-11-13T01:08:14.463Z,2.10
2022-11-13T01:09:14.389Z,2.40
2022-11-13T01:10:14.320Z,2.00
2022-11-13T01:11:14.265Z,1.60
2022-11-13T01:12:14.181Z,1.50
2022-11-13T01:13:14.116Z,1.40
2022-11-13T01:14:14.046Z,1.40
2022-11-13T01:15:13.971Z,1.90
2022-11-13T01:16:13.994Z,1.90
2022-11-13T01:17:13.853Z,1.50
2022-11-13T01:18:13.769Z,1.30
2022-11-13T01:19:13.699Z,1.70
2022-11-13T01:20:13.635Z,2.00
2022-11-13T01:21:13.564Z,2.20
2022-11-13T01:22:13.496Z,1.60
2022-11-13T01:23:13.423Z,1.60
2022-11-13T01:24:13.360Z,1.80
2022-11-13T01:25:13.291Z,1.80
2022-11-13T01:26:13.223Z,1.80
2022-11-13T01:27:13.162Z,1.20
2022-11-13T01:28:13.083Z,1.70
2022-11-13T01:29:13.010Z,1.70
2022-11-13T01:30:12.949Z,1.90
2022-11-13T01:31:12.879Z,1.30
2022-11-13T01:32:12.895Z,1.60
2022-11-13T01:33:12.742Z,2.20
2022-11-13T01:34:12.673Z,1.60
2022-11-13T01:35:12.615Z,2.10
2022-11-13T01:36:12.537Z,1.60
2022-11-13T01:37:12.473Z,2.10
2022-11-13T01:38:12.396Z,1.50
2022-11-13T01:39:12.326Z,1.70
2022-11-13T01:40:12.262Z,1.40
2022-11-13T01:41:12.193Z,1.90
2022-11-13T01:42:12.122Z,1.40
2022-11-13T01:43:12.055Z,2.50
2022-11-13T01:44:11.988Z,2.00
2022-11-13T01:45:11.915Z,1.80
2022-11-13T01:46:11.856Z,1.80
2022-11-13T01:47:11.776Z,1.20
2022-11-13T01:48:11.799Z,2.20
2022-11-13T01:49:11.646Z,1.60
2022-11-13T01:50:11.576Z,1.60
2022-11-13T01:51:11.506Z,1.80
2022-11-13T01:52:11.438Z,1.50
2022-11-13T01:53:11.368Z,1.80
2022-11-13T01:54:11.305Z,1.50
2022-11-13T01:55:11.237Z,1.80
2022-11-13T01:56:11.163Z,1.60
2022-11-13T01:57:11.093Z,1.40
2022-11-13T01:58:11.030Z,1.20
2022-11-13T01:59:10.955Z,1.90
2022-11-13T02:00:10.892Z,1.50
2022-11-13T02:01:10.823Z,1.40
2022-11-13T02:02:10.821Z,2.60
2022-11-13T02:03:10.683Z,1.70
2022-11-13T02:04:10.693Z,2.00
2022-11-13T02:05:10.543Z,1.30
2022-11-13T02:06:10.477Z,1.90
2022-11-13T02:07:10.462Z,2.20
2022-11-13T02:08:10.341Z,1.90
2022-11-13T02:09:10.269Z,1.50
2022-11-13T02:10:10.201Z,2.00
2022-11-13T02:11:10.141Z,1.90
2022-11-13T02:12:10.073Z,1.90
2022-11-13T02:13:09.997Z,1.50
2022-11-13T02:14:09.937Z,1.60
2022-11-13T02:15:09.858Z,1.90
2022-11-13T02:16:09.791Z,2.30
2022-11-13T02:17:09.724Z,1.30
2022-11-13T02:18:09.654Z,1.60
2022-11-13T02:19:09.582Z,2.00
2022-11-13T02:20:09.598Z,2.00
2022-11-13T02:21:09.445Z,2.50
2022-11-13T02:22:09.387Z,1.90
2022-11-13T02:23:09.307Z,1.80
2022-11-13T02:24:09.243Z,2.00
2022-11-13T02:25:09.175Z,2.00
2022-11-13T02:26:09.107Z,1.70
2022-11-13T02:27:09.030Z,1.30
2022-11-13T02:28:08.969Z,1.80
2022-11-13T02:29:08.894Z,1.50
2022-11-13T02:30:10.668Z,1.90
2022-11-13T02:31:08.761Z,2.00
2022-11-13T02:32:08.688Z,1.40
2022-11-13T02:33:08.624Z,1.80
2022-11-13T02:34:08.552Z,1.30
2022-11-13T02:35:08.487Z,1.30
2022-11-13T02:36:08.502Z,2.10
2022-11-13T02:37:08.349Z,1.40
2022-11-13T02:38:08.277Z,1.50
2022-11-13T02:39:08.208Z,1.40
2022-11-13T02:40:08.144Z,1.70
2022-11-13T02:41:08.071Z,2.40
2022-11-13T02:42:08.008Z,1.30
2022-11-13T02:43:07.936Z,1.50
2022-11-13T02:44:07.867Z,1.30
2022-11-13T02:45:07.798Z,2.10
2022-11-13T02:46:07.729Z,1.90
2022-11-13T02:47:07.682Z,2.20
2022-11-13T02:48:07.589Z,1.60
2022-11-13T02:49:07.528Z,1.40
2022-11-13T02:50:07.457Z,1.70
2022-11-13T02:51:07.389Z,1.50
2022-11-13T02:52:07.404Z,1.60
2022-11-13T02:53:07.252Z,1.50
2022-11-13T02:54:07.185Z,2.40
2022-11-13T02:55:07.115Z,1.60
2022-11-13T02:56:07.041Z,2.10
2022-11-13T02:57:06.973Z,1.90
2022-11-13T02:58:06.907Z,1.60
2022-11-13T02:59:06.845Z,1.70
2022-11-13T03:00:10.698Z,1.50
2022-11-13T03:01:06.700Z,1.70
2022-11-13T03:02:06.680Z,1.50
2022-11-13T03:03:06.567Z,2.30
2022-11-13T03:04:06.499Z,1.60
2022-11-13T03:05:14.115Z,2.10
2022-11-13T03:06:06.358Z,1.50
2022-11-13T03:07:06.357Z,1.40
2022-11-13T03:08:06.305Z,1.80
2022-11-13T03:09:06.150Z,1.50
2022-11-13T03:10:06.076Z,1.70
2022-11-13T03:11:06.013Z,1.40
2022-11-13T03:12:05.940Z,1.30
2022-11-13T03:13:05.877Z,2.00
2022-11-13T03:14:05.807Z,1.30
2022-11-13T03:15:05.739Z,2.50
2022-11-13T03:16:05.665Z,2.00
2022-11-13T03:17:05.600Z,1.50
2022-11-13T03:18:05.532Z,1.80
2022-11-13T03:19:05.464Z,1.90
2022-11-13T03:20:05.392Z,2.10
2022-11-13T03:21:05.325Z,1.60
2022-11-13T03:22:05.256Z,1.60
2022-11-13T03:23:05.189Z,1.10
2022-11-13T03:24:05.198Z,1.70
2022-11-13T03:25:10.161Z,1.50
2022-11-13T03:26:04.984Z,1.50
2022-11-13T03:27:04.911Z,1.30
2022-11-13T03:28:04.848Z,2.30
2022-11-13T03:29:04.782Z,1.60
2022-11-13T03:30:04.704Z,1.40
2022-11-13T03:31:04.638Z,2.10
2022-11-13T03:32:04.572Z,1.20
2022-11-13T03:33:04.502Z,1.70
2022-11-13T03:34:04.427Z,1.80
2022-11-13T03:35:04.365Z,1.80
2022-11-13T03:36:04.297Z,1.70
2022-11-13T03:37:04.226Z,1.50
2022-11-13T03:38:04.164Z,1.70
2022-11-13T03:39:04.085Z,1.20
2022-11-13T03:40:04.097Z,1.20
2022-11-13T03:41:03.950Z,1.20
2022-11-13T03:42:03.878Z,2.10
2022-11-13T03:43:03.815Z,1.40
2022-11-13T03:44:03.744Z,1.70
2022-11-13T03:45:03.676Z,1.40
2022-11-13T03:46:03.606Z,1.60
2022-11-13T03:47:03.535Z,1.50
2022-11-13T03:48:03.467Z,1.50
2022-11-13T03:49:03.400Z,1.60
2022-11-13T03:50:03.334Z,1.50
2022-11-13T03:51:03.264Z,1.40
2022-11-13T03:52:03.192Z,1.70
2022-11-13T03:53:03.130Z,2.30
2022-11-13T03:54:03.056Z,2.00
2022-11-13T03:55:02.981Z,1.50
2022-11-13T03:56:02.995Z,1.60
2022-11-13T03:57:02.847Z,1.90
2022-11-13T03:58:02.780Z,1.70
2022-11-13T03:59:02.711Z,1.30
2022-11-13T04:00:02.642Z,2.30
2022-11-13T04:01:02.572Z,1.30
2022-11-13T04:02:02.626Z,1.30
2022-11-13T04:03:02.442Z,2.10
2022-11-13T04:04:02.379Z,1.20
2022-11-13T04:05:02.294Z,1.80
2022-11-13T04:06:02.234Z,1.80
2022-11-13T04:07:02.228Z,2.00
2022-11-13T04:08:02.094Z,1.30
2022-11-13T04:09:02.026Z,1.10
2022-11-13T04:10:01.954Z,2.10
2022-11-13T04:11:01.888Z,1.40
2022-11-13T04:12:01.896Z,1.70
2022-11-13T04:13:01.747Z,1.50
2022-11-13T04:14:01.675Z,1.80
2022-11-13T04:15:01.607Z,1.80
2022-11-13T04:16:01.546Z,2.60
2022-11-13T04:17:01.474Z,1.40
2022-11-13T04:18:01.397Z,1.70
2022-11-13T04:19:01.344Z,1.30
2022-11-13T04:20:01.261Z,1.50
2022-11-13T04:21:01.191Z,1.60
2022-11-13T04:22:01.128Z,1.40
2022-11-13T04:23:01.056Z,1.60
2022-11-13T04:24:00.989Z,1.60
2022-11-13T04:25:00.919Z,1.30
2022-11-13T04:26:00.851Z,1.40
2022-11-13T04:27:00.778Z,1.30
2022-11-13T04:28:00.792Z,1.40
2022-11-13T04:51:47.589Z,1.40
2022-11-13T04:52:47.371Z,1.50
2022-11-13T05:17:38.332Z,1.30
2022-11-13T05:18:38.301Z,2.10
2022-11-13T05:25:06.255Z,1.70
2022-11-13T05:26:06.184Z,1.40
2022-11-13T05:46:18.229Z,2.00
2022-11-13T05:47:18.060Z,1.40
2022-11-13T06:13:39.128Z,1.60
2022-11-13T06:14:38.861Z,1.80
2022-11-13T08:28:13.416Z,1.60
2022-11-13T08:29:11.809Z,1.80
2022-11-13T09:53:35.301Z,1.40
2022-11-13T09:54:35.267Z,2.10
2022-11-13T10:59:13.954Z,1.90
2022-11-13T11:00:13.763Z,1.40
2022-11-13T11:19:03.138Z,2.00
2022-11-13T11:20:02.943Z,2.20
2022-11-13T11:31:07.284Z,1.80
2022-11-13T11:32:07.098Z,2.60
2022-11-13T12:48:51.898Z,1.60
2022-11-13T12:49:51.695Z,2.00
2022-11-13T13:28:23.737Z,1.90
2022-11-13T13:29:23.603Z,2.20
2022-11-13T13:55:46.588Z,1.40
2022-11-13T13:56:46.424Z,1.80
2022-11-13T15:47:28.870Z,3.30
2022-11-13T15:48:28.810Z,3.40
2022-11-13T16:48:27.516Z,2.90
2022-11-13T16:49:27.390Z,3.00
2022-11-13T16:50:27.275Z,1.90
2022-11-13T16:51:27.204Z,3.00
2022-11-13T16:52:27.159Z,2.70
2022-11-13T16:53:27.262Z,3.60
2022-11-13T16:54:27.021Z,2.60
2022-11-13T16:55:26.938Z,2.60
2022-11-13T16:56:26.881Z,3.20
2022-11-13T16:57:26.829Z,3.40
2022-11-13T16:58:26.739Z,2.50
2022-11-13T16:59:26.687Z,2.40
2022-11-13T17:00:26.600Z,2.10
2022-11-13T17:01:26.644Z,2.90
2022-11-13T17:02:26.469Z,2.70
2022-11-13T17:03:26.830Z,3.10
2022-11-13T17:04:26.412Z,2.90
2022-11-13T17:05:26.282Z,2.70
2022-11-13T17:06:26.206Z,2.50
2022-11-13T17:07:26.158Z,2.10
2022-11-13T17:08:26.064Z,3.10
2022-11-13T17:09:26.005Z,3.10
2022-11-13T17:10:33.508Z,3.40
2022-11-13T17:11:25.864Z,3.00
2022-11-13T17:12:25.795Z,3.00
2022-11-13T17:13:25.774Z,3.00
2022-11-13T17:14:25.676Z,3.30
2022-11-13T17:15:25.591Z,3.10
2022-11-13T17:16:25.524Z,3.30
2022-11-13T17:17:25.451Z,4.00
2022-11-13T17:18:25.387Z,3.10
2022-11-13T17:19:25.328Z,3.40
2022-11-13T17:20:25.345Z,3.60
2022-11-13T17:21:25.185Z,2.70
2022-11-13T17:22:25.124Z,2.70
2022-11-13T17:23:25.051Z,2.10
2022-11-13T17:24:24.983Z,2.50
2022-11-13T17:25:24.911Z,2.70
2022-11-13T17:26:24.850Z,2.60
2022-11-13T17:27:24.785Z,3.00
2022-11-13T17:28:24.709Z,3.10
2022-11-13T17:29:24.641Z,3.10
2022-11-13T17:30:24.580Z,2.20
2022-11-13T17:31:24.514Z,2.60
2022-11-13T17:32:24.444Z,2.60
2022-11-13T17:33:24.375Z,2.60
2022-11-13T17:34:24.310Z,3.00
2022-11-13T17:35:24.243Z,2.50
2022-11-13T17:36:24.259Z,2.80
2022-11-13T17:37:25.455Z,3.20
2022-11-13T17:38:24.038Z,1.90
2022-11-13T17:39:23.977Z,2.10
2022-11-13T17:40:23.900Z,2.10
2022-11-13T17:41:23.829Z,2.10
2022-11-13T17:42:23.775Z,1.80
2022-11-13T17:43:23.698Z,2.20
2022-11-13T17:44:23.645Z,2.30
2022-11-13T17:45:23.558Z,2.70
2022-11-13T17:46:23.497Z,2.30
2022-11-13T17:47:23.425Z,1.80
2022-11-13T17:48:23.364Z,2.10
2022-11-13T17:49:23.295Z,1.90
2022-11-13T17:50:23.227Z,3.00
2022-11-13T17:51:23.157Z,2.30
2022-11-13T17:52:23.191Z,2.90
2022-11-13T17:53:23.019Z,4.60
2022-11-13T17:54:22.955Z,3.20
2022-11-13T17:55:22.883Z,3.10
2022-11-13T17:56:22.839Z,3.10
2022-11-13T17:57:26.712Z,3.10
2022-11-13T17:58:22.687Z,3.10
2022-11-13T17:59:22.620Z,3.40
2022-11-13T18:00:22.565Z,3.60
2022-11-13T18:01:22.553Z,3.10
2022-11-13T18:02:22.409Z,2.30
2022-11-13T18:03:22.339Z,3.30
2022-11-13T18:04:22.277Z,2.70
2022-11-13T18:05:22.209Z,2.60
2022-11-13T18:06:22.139Z,3.10
2022-11-13T18:07:22.152Z,2.30
2022-11-13T18:08:22.092Z,3.00
2022-11-13T18:09:21.949Z,2.80
2022-11-13T18:10:21.870Z,2.90
2022-11-13T18:11:21.799Z,2.40
2022-11-13T18:12:21.736Z,1.90
2022-11-13T18:13:21.667Z,1.60
2022-11-13T18:14:21.602Z,2.60
2022-11-13T18:15:21.536Z,2.00
2022-11-13T18:16:21.469Z,2.90
2022-11-13T18:17:21.395Z,3.40
2022-11-13T18:18:21.326Z,3.20
2022-11-13T18:19:21.264Z,1.80
2022-11-13T18:20:21.193Z,2.50
2022-11-13T18:21:23.248Z,2.30
2022-11-13T18:22:21.052Z,2.70
2022-11-13T18:23:20.985Z,2.30
2022-11-13T18:24:21.099Z,2.00
2022-11-13T18:25:20.849Z,2.70
2022-11-13T18:26:20.781Z,3.00
2022-11-13T18:27:20.716Z,2.90
2022-11-13T18:28:20.655Z,3.20
2022-11-13T18:29:20.589Z,2.30
2022-11-13T18:30:20.511Z,3.10
2022-11-13T18:31:20.453Z,2.90
2022-11-13T18:32:20.374Z,2.10
2022-11-13T18:33:20.307Z,2.40
2022-11-13T18:34:20.238Z,2.60
2022-11-13T18:35:20.175Z,2.50
2022-11-13T18:36:20.104Z,2.20
2022-11-13T18:37:20.035Z,2.40
2022-11-13T18:38:19.970Z,2.70
2022-11-13T18:39:19.930Z,1.80
2022-11-13T18:40:19.928Z,2.30
2022-11-13T18:41:19.766Z,2.40
2022-11-13T18:42:19.699Z,1.90
2022-11-13T18:43:19.626Z,2.80
2022-11-13T18:44:19.583Z,2.30
2022-11-13T18:45:19.491Z,2.10
2022-11-13T18:46:19.431Z,2.30
2022-11-13T18:47:19.356Z,2.40
2022-11-13T18:48:19.284Z,2.30
2022-11-13T18:49:19.216Z,1.80
2022-11-13T18:50:19.152Z,2.70
2022-11-13T18:51:19.082Z,3.60
2022-11-13T18:52:19.009Z,2.40
2022-11-13T18:53:18.955Z,1.90
2022-11-13T18:54:18.875Z,3.20
2022-11-13T18:55:18.817Z,1.80
2022-11-13T18:56:18.820Z,2.30
2022-11-13T18:57:18.674Z,2.50
2022-11-13T18:58:18.605Z,2.00
2022-11-13T18:59:18.540Z,2.60
2022-11-13T19:00:18.469Z,2.60
2022-11-13T19:01:22.222Z,2.30
2022-11-13T19:02:18.386Z,2.10
2022-11-13T19:03:18.270Z,2.80
2022-11-13T19:04:23.289Z,2.30
2022-11-13T19:05:18.154Z,2.30
2022-11-13T19:06:18.061Z,1.90
2022-11-13T19:07:18.041Z,2.10
2022-11-13T19:08:17.949Z,1.60
2022-11-13T19:09:17.853Z,1.90
2022-11-13T19:10:17.788Z,1.80
2022-11-13T19:11:17.717Z,2.30
2022-11-13T19:12:17.735Z,2.50
2022-11-13T19:13:17.578Z,1.90
2022-11-13T19:14:17.516Z,1.70
2022-11-13T19:15:17.447Z,2.60
2022-11-13T19:16:17.380Z,2.50
2022-11-13T19:17:17.326Z,2.30
2022-11-13T19:18:17.245Z,1.80
2022-11-13T19:19:17.201Z,2.90
2022-11-13T19:20:17.105Z,2.00
2022-11-13T19:21:17.038Z,2.20
2022-11-13T19:22:16.966Z,2.10
2022-11-13T19:23:16.901Z,2.10
2022-11-13T20:16:18.837Z,2.40
2022-11-13T20:17:18.677Z,1.70
2022-11-13T20:26:51.310Z,1.70
2022-11-13T20:27:51.209Z,1.50
2022-11-13T20:42:10.749Z,2.00
2022-11-13T20:43:10.553Z,2.20
2022-11-13T20:57:38.112Z,2.00
2022-11-13T20:58:33.151Z,2.40
2022-11-13T21:03:41.874Z,2.60
2022-11-13T21:04:41.761Z,1.50
2022-11-13T21:20:37.247Z,1.50
2022-11-13T21:21:37.137Z,1.90
2022-11-13T21:29:37.879Z,2.10
2022-11-13T21:30:37.713Z,1.40
2022-11-13T21:47:57.980Z,2.30
2022-11-13T21:48:57.837Z,1.60
2022-11-13T22:00:17.205Z,1.90
2022-11-13T22:01:17.126Z,1.80
2022-11-13T22:20:10.438Z,1.30
2022-11-13T22:21:10.284Z,2.00
2022-11-13T22:31:13.486Z,2.60
2022-11-13T22:32:05.541Z,2.20
2022-11-13T22:49:33.073Z,1.50
2022-11-13T22:50:32.982Z,2.10
